Time;durP1;ratioP1;P1;durP2;ratioP2;P2;SDS_P1;SDS_P2;PMS_P1;PMS_P2;Temp;Humidity;BMP_temperature;BMP_pressure;BME280_temperature;BME280_humidity;BME280_pressure;Samples;Min_cycle;Max_cycle;Signal;HPM_P1;HPM_P2
2022/07/31 00:01:03;;;;;;;;;;;22.50;74.70;;;;;;5072796;28;19916;-59
2022/07/31 00:03:29;;;;;;;;;;;22.50;74.20;;;;;;5073146;28;20051;-59
2022/07/31 00:05:54;;;;;;;;;;;22.50;74.30;;;;;;5073081;28;20407;-59
2022/07/31 00:08:20;;;;;;;;;;;22.50;74.10;;;;;;5073500;28;19908;-59
2022/07/31 00:10:45;;;;;;;;;;;22.50;73.70;;;;;;5072415;28;19909;-58
2022/07/31 00:13:11;;;;;;;;;;;22.50;73.50;;;;;;5072708;28;19912;-58
2022/07/31 00:15:36;;;;;;;;;;;22.50;74.60;;;;;;5071317;28;19942;-59
2022/07/31 00:18:02;;;;;;;;;;;22.40;74.50;;;;;;5072749;28;19916;-58
2022/07/31 00:20:27;;;;;;;;;;;22.40;74.10;;;;;;5072738;28;19917;-58
2022/07/31 00:22:53;;;;;;;;;;;22.40;74.40;;;;;;5072144;28;19913;-58
2022/07/31 00:25:19;;;;;;;;;;;22.40;74.20;;;;;;5072353;28;19916;-59
2022/07/31 00:27:44;;;;;;;;;;;22.40;75.00;;;;;;5072429;28;19908;-59
2022/07/31 00:30:15;;;;;;;;;;;22.30;74.30;;;;;;5072583;28;19908;-58
2022/07/31 00:32:41;;;;;;;;;;;22.30;74.40;;;;;;5072238;28;19908;-58
2022/07/31 00:35:07;;;;;;;;;;;22.30;75.20;;;;;;5072581;28;19908;-58
2022/07/31 00:37:36;;;;;;;;;;;22.20;74.60;;;;;;5072680;28;19943;-59
2022/07/31 00:40:05;;;;;;;;;;;22.20;74.70;;;;;;5070904;28;20393;-59
2022/07/31 00:42:31;;;;;;;;;;;22.20;74.90;;;;;;5071541;28;19908;-59
2022/07/31 00:44:56;;;;;;;;;;;22.20;75.50;;;;;;5071697;28;19912;-59
2022/07/31 00:47:22;;;;;;;;;;;22.20;75.90;;;;;;5072660;28;19919;-59
2022/07/31 00:49:47;;;;;;;;;;;22.10;75.30;;;;;;5072209;28;19908;-59
2022/07/31 00:52:13;;;;;;;;;;;22.10;76.00;;;;;;5072232;28;20003;-59
2022/07/31 00:54:39;;;;;;;;;;;22.10;75.80;;;;;;5071298;28;19919;-60
2022/07/31 00:57:05;;;;;;;;;;;22.10;75.10;;;;;;5072163;28;20305;-58
2022/07/31 00:59:30;;;;;;;;;;;22.10;75.20;;;;;;5071832;28;20417;-59
2022/07/31 01:01:56;;;;;;;;;;;22.00;75.80;;;;;;5072091;28;19938;-59
2022/07/31 01:04:22;;;;;;;;;;;22.00;76.00;;;;;;5071934;28;19915;-59
2022/07/31 01:06:48;;;;;;;;;;;22.00;76.50;;;;;;5071674;28;19913;-59
2022/07/31 01:09:14;;;;;;;;;;;22.00;75.30;;;;;;5071025;28;19914;-59
2022/07/31 01:11:42;;;;;;;;;;;22.00;75.30;;;;;;5072240;28;19912;-58
2022/07/31 01:14:08;;;;;;;;;;;22.00;76.50;;;;;;5071964;28;19908;-59
2022/07/31 01:16:39;;;;;;;;;;;22.00;75.50;;;;;;5071765;28;19915;-59
2022/07/31 01:19:30;;;;;;;;;;;22.00;77.40;;;;;;5071635;28;19959;-58
2022/07/31 01:22:15;;;;;;;;;;;22.00;76.40;;;;;;5071764;28;19921;-59
2022/07/31 01:24:40;;;;;;;;;;;21.90;76.80;;;;;;5071423;28;20039;-59
2022/07/31 01:27:21;;;;;;;;;;;21.90;76.80;;;;;;5071535;28;19999;-59
2022/07/31 01:29:48;;;;;;;;;;;21.90;77.60;;;;;;5071515;28;19909;-60
2022/07/31 01:32:17;;;;;;;;;;;21.80;77.90;;;;;;5071066;28;19948;-58
2022/07/31 01:34:45;;;;;;;;;;;21.70;77.90;;;;;;5071091;28;19916;-59
2022/07/31 01:37:28;;;;;;;;;;;21.70;78.80;;;;;;5071113;28;20379;-60
2022/07/31 01:40:02;;;;;;;;;;;21.60;79.30;;;;;;5071353;28;19919;-59
2022/07/31 01:42:29;;;;;;;;;;;21.50;80.30;;;;;;5071561;28;19909;-59
2022/07/31 01:44:56;;;;;;;;;;;21.50;79.40;;;;;;5070841;28;19948;-60
2022/07/31 01:47:22;;;;;;;;;;;21.50;79.60;;;;;;5071163;28;19915;-59
2022/07/31 01:49:49;;;;;;;;;;;21.50;78.50;;;;;;5071227;28;19909;-59
2022/07/31 01:52:14;;;;;;;;;;;21.50;79.10;;;;;;5070616;28;19987;-59
2022/07/31 01:54:40;;;;;;;;;;;21.40;79.80;;;;;;5070162;28;19920;-60
2022/07/31 01:57:06;;;;;;;;;;;21.50;79.50;;;;;;5071528;28;20340;-59
2022/07/31 01:59:33;;;;;;;;;;;21.40;80.60;;;;;;5070593;28;19908;-59
2022/07/31 02:01:59;;;;;;;;;;;21.40;79.50;;;;;;5070953;28;19920;-59
2022/07/31 02:04:25;;;;;;;;;;;21.40;79.90;;;;;;5070846;28;19956;-59
2022/07/31 02:06:51;;;;;;;;;;;21.30;80.80;;;;;;5070826;28;20005;-59
2022/07/31 02:09:18;;;;;;;;;;;21.30;80.80;;;;;;5070655;28;19923;-59
2022/07/31 02:11:44;;;;;;;;;;;21.30;80.30;;;;;;5071128;28;19919;-59
2022/07/31 02:14:10;;;;;;;;;;;21.20;79.60;;;;;;5071102;28;19915;-59
2022/07/31 02:16:36;;;;;;;;;;;21.20;80.30;;;;;;5064012;28;19913;-59
2022/07/31 02:19:04;;;;;;;;;;;21.20;80.80;;;;;;5070373;28;19913;-59
2022/07/31 02:21:29;;;;;;;;;;;21.20;80.90;;;;;;5070401;28;19959;-59
2022/07/31 02:23:56;;;;;;;;;;;21.20;80.90;;;;;;5070543;28;20420;-59
2022/07/31 02:26:22;;;;;;;;;;;21.20;80.70;;;;;;5070511;28;19908;-59
2022/07/31 02:28:48;;;;;;;;;;;21.10;80.80;;;;;;5070905;28;20382;-59
2022/07/31 02:31:15;;;;;;;;;;;21.10;81.00;;;;;;5070844;28;19916;-60
2022/07/31 02:33:42;;;;;;;;;;;21.10;81.90;;;;;;5070744;28;19912;-59
2022/07/31 02:36:07;;;;;;;;;;;21.10;81.00;;;;;;5068775;28;19909;-59
2022/07/31 02:38:34;;;;;;;;;;;21.10;81.80;;;;;;5071100;28;20389;-59
2022/07/31 02:41:01;;;;;;;;;;;21.10;83.00;;;;;;5070267;28;19927;-60
2022/07/31 02:43:27;;;;;;;;;;;21.00;82.90;;;;;;5070105;28;19993;-59
2022/07/31 02:45:53;;;;;;;;;;;21.00;83.50;;;;;;5070945;28;19956;-59
2022/07/31 02:48:19;;;;;;;;;;;21.00;84.10;;;;;;5070779;28;19915;-58
2022/07/31 02:50:44;;;;;;;;;;;20.90;82.30;;;;;;5069552;28;19913;-59
2022/07/31 02:53:10;;;;;;;;;;;20.90;84.00;;;;;;5070253;28;20034;-59
2022/07/31 02:55:36;;;;;;;;;;;20.90;83.30;;;;;;5070255;28;19909;-59
2022/07/31 02:58:02;;;;;;;;;;;20.90;83.10;;;;;;5070673;28;19960;-60
2022/07/31 03:00:28;;;;;;;;;;;20.90;84.20;;;;;;5070257;28;19963;-59
2022/07/31 03:02:54;;;;;;;;;;;20.80;84.50;;;;;;5070295;28;20354;-59
2022/07/31 03:05:20;;;;;;;;;;;20.80;84.50;;;;;;5070650;28;19908;-59
2022/07/31 03:07:45;;;;;;;;;;;20.80;85.90;;;;;;5073965;28;19909;-59
2022/07/31 03:10:11;;;;;;;;;;;20.80;86.40;;;;;;5072720;28;20392;-58
2022/07/31 03:12:45;;;;;;;;;;;20.70;87.10;;;;;;5074208;28;19999;-59
2022/07/31 03:15:12;;;;;;;;;;;20.60;87.40;;;;;;5074052;28;19912;-59
2022/07/31 03:17:38;;;;;;;;;;;20.60;87.20;;;;;;5074159;28;19913;-59
2022/07/31 03:20:05;;;;;;;;;;;20.60;88.60;;;;;;5073425;28;20003;-59
2022/07/31 03:22:30;;;;;;;;;;;20.50;87.60;;;;;;5074153;28;19920;-58
2022/07/31 03:24:56;;;;;;;;;;;20.50;87.80;;;;;;5073803;28;19910;-60
2022/07/31 03:27:22;;;;;;;;;;;20.50;88.20;;;;;;5073286;28;19915;-59
2022/07/31 03:29:48;;;;;;;;;;;20.40;88.60;;;;;;5072595;28;19908;-59
2022/07/31 03:32:13;;;;;;;;;;;20.40;88.90;;;;;;5074022;28;20022;-59
2022/07/31 03:34:39;;;;;;;;;;;20.40;89.20;;;;;;5072867;28;19920;-59
2022/07/31 03:37:04;;;;;;;;;;;20.40;88.00;;;;;;5073648;28;19919;-58
2022/07/31 03:39:30;;;;;;;;;;;20.40;88.10;;;;;;5073962;28;19913;-58
2022/07/31 03:41:56;;;;;;;;;;;20.40;87.30;;;;;;5073279;28;19924;-59
2022/07/31 03:44:22;;;;;;;;;;;20.40;86.70;;;;;;5073512;28;19912;-59
2022/07/31 03:46:47;;;;;;;;;;;20.40;86.80;;;;;;5074015;28;19962;-59
2022/07/31 03:49:13;;;;;;;;;;;20.40;86.70;;;;;;5072879;28;19909;-59
2022/07/31 03:51:38;;;;;;;;;;;20.40;88.30;;;;;;5073351;28;19995;-59
2022/07/31 03:54:04;;;;;;;;;;;20.30;89.90;;;;;;5073353;28;19914;-58
2022/07/31 03:56:30;;;;;;;;;;;20.30;88.80;;;;;;5073028;28;20392;-59
2022/07/31 03:58:55;;;;;;;;;;;20.30;88.40;;;;;;5073091;28;19913;-59
2022/07/31 04:01:21;;;;;;;;;;;20.30;88.00;;;;;;5073129;28;19920;-60
2022/07/31 04:03:47;;;;;;;;;;;20.20;89.20;;;;;;5072962;28;19915;-59
2022/07/31 04:06:12;;;;;;;;;;;20.30;90.20;;;;;;5073065;28;19944;-57
2022/07/31 04:08:38;;;;;;;;;;;20.20;89.90;;;;;;5072956;28;19909;-58
2022/07/31 04:11:03;;;;;;;;;;;20.20;89.50;;;;;;5072870;28;20315;-59
2022/07/31 04:13:29;;;;;;;;;;;20.20;90.10;;;;;;5072984;28;19926;-60
2022/07/31 04:15:54;;;;;;;;;;;20.20;88.80;;;;;;5072758;28;20484;-59
2022/07/31 04:18:20;;;;;;;;;;;20.30;90.00;;;;;;5071547;28;20019;-60
2022/07/31 04:20:45;;;;;;;;;;;20.30;88.80;;;;;;5072632;28;19916;-60
2022/07/31 04:23:11;;;;;;;;;;;20.30;89.10;;;;;;5073005;28;20377;-59
2022/07/31 04:25:36;;;;;;;;;;;20.30;90.10;;;;;;5072512;28;20266;-59
2022/07/31 04:28:02;;;;;;;;;;;20.20;90.10;;;;;;5072790;28;19922;-59
2022/07/31 04:30:27;;;;;;;;;;;20.20;89.30;;;;;;5072418;28;19912;-60
2022/07/31 04:32:53;;;;;;;;;;;20.20;89.00;;;;;;5071965;28;20414;-60
2022/07/31 04:35:18;;;;;;;;;;;20.20;89.20;;;;;;5072223;28;20357;-60
2022/07/31 04:37:44;;;;;;;;;;;20.20;89.60;;;;;;5072525;28;19932;-60
2022/07/31 04:40:10;;;;;;;;;;;20.20;90.30;;;;;;5072418;28;19908;-59
2022/07/31 04:42:35;;;;;;;;;;;20.30;89.40;;;;;;5072120;28;19909;-58
2022/07/31 04:45:01;;;;;;;;;;;20.30;90.20;;;;;;5072276;28;19908;-59
2022/07/31 04:47:26;;;;;;;;;;;20.20;90.50;;;;;;5071512;28;19939;-59
2022/07/31 04:49:51;;;;;;;;;;;20.30;90.10;;;;;;5072372;28;19975;-60
2022/07/31 04:52:17;;;;;;;;;;;20.30;90.00;;;;;;5072184;28;19909;-60
2022/07/31 04:54:42;;;;;;;;;;;20.30;90.50;;;;;;5065655;28;19913;-60
2022/07/31 04:57:08;;;;;;;;;;;20.30;90.30;;;;;;5071693;28;20377;-59
2022/07/31 04:59:33;;;;;;;;;;;20.30;90.40;;;;;;5071817;28;19935;-56
2022/07/31 05:01:59;;;;;;;;;;;20.30;90.20;;;;;;5071444;28;20381;-60
2022/07/31 05:04:25;;;;;;;;;;;20.40;90.60;;;;;;5072331;28;20293;-59
2022/07/31 05:06:51;;;;;;;;;;;20.40;90.50;;;;;;5071650;28;20004;-59
2022/07/31 05:09:17;;;;;;;;;;;20.40;90.00;;;;;;5072060;28;19991;-60
2022/07/31 05:11:43;;;;;;;;;;;20.50;90.50;;;;;;5072095;28;20007;-58
2022/07/31 05:14:09;;;;;;;;;;;20.50;90.50;;;;;;5071460;28;20449;-59
2022/07/31 05:16:35;;;;;;;;;;;20.50;90.20;;;;;;5071445;28;19991;-59
2022/07/31 05:19:01;;;;;;;;;;;20.50;90.80;;;;;;5071665;28;19963;-59
2022/07/31 05:21:29;;;;;;;;;;;20.60;90.90;;;;;;5071598;28;19923;-58
2022/07/31 05:23:55;;;;;;;;;;;20.50;90.20;;;;;;5072022;28;19909;-59
2022/07/31 05:26:21;;;;;;;;;;;20.60;90.80;;;;;;5071381;28;19916;-60
2022/07/31 05:28:48;;;;;;;;;;;20.60;90.70;;;;;;5071241;28;20003;-59
2022/07/31 05:31:14;;;;;;;;;;;20.60;90.70;;;;;;5071137;28;19912;-59
2022/07/31 05:33:40;;;;;;;;;;;20.60;90.70;;;;;;5071706;28;20432;-59
2022/07/31 05:36:06;;;;;;;;;;;20.50;90.60;;;;;;5071837;28;19944;-59
2022/07/31 05:38:31;;;;;;;;;;;20.50;90.60;;;;;;5327773;22;20019;-59
2022/07/31 05:40:57;;;;;;;;;;;20.60;90.90;;;;;;5091229;28;19958;-59
2022/07/31 05:43:22;;;;;;;;;;;20.60;91.10;;;;;;5076922;28;19954;-59
2022/07/31 05:45:48;;;;;;;;;;;20.50;91.10;;;;;;5072085;28;20364;-60
2022/07/31 05:48:14;;;;;;;;;;;20.50;91.40;;;;;;5071766;28;19908;-59
2022/07/31 05:50:43;;;;;;;;;;;20.50;90.90;;;;;;5071608;28;19952;-60
2022/07/31 05:53:11;;;;;;;;;;;20.50;91.40;;;;;;5065322;28;20485;-59
2022/07/31 05:55:38;;;;;;;;;;;20.50;91.40;;;;;;5071444;28;19912;-59
2022/07/31 05:58:03;;;;;;;;;;;20.60;91.50;;;;;;5053817;28;19908;-59
2022/07/31 06:00:29;;;;;;;;;;;20.60;91.30;;;;;;5071346;28;19920;-58
2022/07/31 06:02:55;;;;;;;;;;;20.70;91.50;;;;;;5071565;28;20368;-58
2022/07/31 06:05:21;;;;;;;;;;;20.60;91.30;;;;;;5084367;28;19908;-59
2022/07/31 06:07:46;;;;;;;;;;;20.60;91.30;;;;;;5091010;28;19908;-59
2022/07/31 06:10:12;;;;;;;;;;;20.60;91.60;;;;;;5090654;28;20006;-60
2022/07/31 06:12:37;;;;;;;;;;;20.60;91.40;;;;;;5083574;28;19934;-59
2022/07/31 06:15:03;;;;;;;;;;;20.60;91.80;;;;;;5090882;28;19912;-59
2022/07/31 06:17:29;;;;;;;;;;;20.60;91.80;;;;;;5090603;28;19908;-59
2022/07/31 06:19:54;;;;;;;;;;;20.50;91.90;;;;;;5090504;28;19915;-59
2022/07/31 06:22:19;;;;;;;;;;;20.60;91.70;;;;;;5072702;28;19917;-59
2022/07/31 06:24:45;;;;;;;;;;;20.60;91.60;;;;;;5090617;28;19935;-59
2022/07/31 06:27:10;;;;;;;;;;;20.50;91.50;;;;;;5087888;28;19923;-59
2022/07/31 06:29:36;;;;;;;;;;;20.50;91.70;;;;;;5079866;28;19916;-58
2022/07/31 06:32:02;;;;;;;;;;;20.50;91.60;;;;;;5090542;28;20375;-59
2022/07/31 06:34:27;;;;;;;;;;;20.50;91.80;;;;;;5089475;28;19942;-59
2022/07/31 06:36:53;;;;;;;;;;;20.50;91.70;;;;;;5071234;28;19944;-59
2022/07/31 06:39:19;;;;;;;;;;;20.50;91.60;;;;;;5053170;28;20391;-59
2022/07/31 06:41:46;;;;;;;;;;;20.60;91.80;;;;;;5073052;28;20007;-59
2022/07/31 06:44:20;;;;;;;;;;;20.60;91.70;;;;;;5074929;28;19908;-58
2022/07/31 06:46:46;;;;;;;;;;;20.70;91.60;;;;;;5075678;28;19948;-59
2022/07/31 06:49:11;;;;;;;;;;;20.70;91.40;;;;;;5075141;28;19950;-57
2022/07/31 06:51:37;;;;;;;;;;;20.70;91.50;;;;;;5074961;28;19960;-58
2022/07/31 06:54:04;;;;;;;;;;;20.80;91.40;;;;;;5088095;28;19916;-58
2022/07/31 06:56:30;;;;;;;;;;;20.80;91.30;;;;;;5094396;28;19908;-58
2022/07/31 06:58:56;;;;;;;;;;;20.80;91.20;;;;;;5094133;28;19977;-58
2022/07/31 07:01:22;;;;;;;;;;;20.80;91.40;;;;;;5094006;28;20638;-59
2022/07/31 07:03:47;;;;;;;;;;;20.90;91.30;;;;;;5094091;28;19916;-58
2022/07/31 07:06:13;;;;;;;;;;;20.90;91.30;;;;;;5094318;28;19912;-59
2022/07/31 07:08:39;;;;;;;;;;;21.00;91.10;;;;;;5093887;28;19908;-59
2022/07/31 07:11:04;;;;;;;;;;;21.00;91.20;;;;;;5081598;28;19908;-58
2022/07/31 07:13:30;;;;;;;;;;;21.00;91.10;;;;;;5074591;28;19916;-59
2022/07/31 07:15:55;;;;;;;;;;;21.00;91.00;;;;;;5074708;28;19916;-60
2022/07/31 07:18:21;;;;;;;;;;;20.90;91.00;;;;;;5071030;28;19968;-58
2022/07/31 07:20:47;;;;;;;;;;;20.90;91.00;;;;;;5084004;28;19924;-58
2022/07/31 07:23:12;;;;;;;;;;;20.90;90.80;;;;;;5075788;28;19916;-58
2022/07/31 07:25:38;;;;;;;;;;;20.80;90.80;;;;;;5072777;28;19935;-59
2022/07/31 07:28:03;;;;;;;;;;;20.80;90.90;;;;;;5071763;28;19971;-59
2022/07/31 07:30:29;;;;;;;;;;;20.80;90.90;;;;;;5047249;28;19999;-59
2022/07/31 07:32:55;;;;;;;;;;;20.90;90.80;;;;;;5079805;28;19916;-60
2022/07/31 07:35:20;;;;;;;;;;;20.90;90.90;;;;;;5075900;28;20398;-58
2022/07/31 07:37:46;;;;;;;;;;;20.90;90.90;;;;;;5093708;28;19934;-59
2022/07/31 07:40:12;;;;;;;;;;;21.00;90.70;;;;;;5093160;28;20114;-60
2022/07/31 07:42:38;;;;;;;;;;;21.00;90.50;;;;;;5093611;28;19958;-59
2022/07/31 07:45:03;;;;;;;;;;;21.00;90.50;;;;;;5076089;28;19938;-59
2022/07/31 07:47:29;;;;;;;;;;;21.10;90.60;;;;;;5067976;28;19919;-59
2022/07/31 07:49:55;;;;;;;;;;;21.30;90.60;;;;;;5066301;28;19916;-59
2022/07/31 07:52:20;;;;;;;;;;;21.40;90.50;;;;;;5072513;28;19956;-60
2022/07/31 07:54:46;;;;;;;;;;;21.40;90.30;;;;;;5071072;28;19941;-60
2022/07/31 07:57:19;;;;;;;;;;;21.40;90.20;;;;;;5073009;28;19954;-60
2022/07/31 07:59:45;;;;;;;;;;;21.40;90.00;;;;;;5073220;28;19931;-60
2022/07/31 08:02:13;;;;;;;;;;;21.30;89.80;;;;;;5056476;28;19921;-60
2022/07/31 08:04:39;;;;;;;;;;;21.30;90.20;;;;;;5070434;28;19956;-60
2022/07/31 08:07:05;;;;;;;;;;;21.40;90.20;;;;;;5072953;28;19966;-61
2022/07/31 08:09:33;;;;;;;;;;;21.50;90.10;;;;;;5072919;28;19999;-61
2022/07/31 08:11:59;;;;;;;;;;;21.60;90.10;;;;;;5070935;28;19919;-60
2022/07/31 08:14:25;;;;;;;;;;;21.60;90.00;;;;;;5073324;28;19913;-61
2022/07/31 08:16:51;;;;;;;;;;;21.60;90.00;;;;;;5074430;28;19923;-61
2022/07/31 08:19:16;;;;;;;;;;;21.60;89.60;;;;;;5072176;28;19991;-61
2022/07/31 08:21:42;;;;;;;;;;;21.50;89.80;;;;;;5072272;28;19925;-61
2022/07/31 08:24:09;;;;;;;;;;;21.60;90.00;;;;;;5074080;28;19950;-60
2022/07/31 08:29:19;;;;;;;;;;;21.70;89.90;;;;;;5073472;28;19958;-61
2022/07/31 08:31:44;;;;;;;;;;;21.70;89.70;;;;;;5070714;28;19944;-59
2022/07/31 08:34:10;;;;;;;;;;;21.70;89.30;;;;;;5072755;28;20280;-59
2022/07/31 08:36:36;;;;;;;;;;;21.70;89.10;;;;;;5072621;28;19916;-60
2022/07/31 08:39:02;;;;;;;;;;;21.70;89.40;;;;;;5071265;28;19995;-60
2022/07/31 08:41:28;;;;;;;;;;;21.70;89.70;;;;;;5076707;28;19920;-60
2022/07/31 08:43:55;;;;;;;;;;;21.80;89.40;;;;;;5072013;28;20388;-59
2022/07/31 08:46:21;;;;;;;;;;;21.80;89.20;;;;;;5072144;28;20041;-60
2022/07/31 08:48:48;;;;;;;;;;;21.90;89.40;;;;;;5070978;28;20450;-59
2022/07/31 08:51:14;;;;;;;;;;;22.00;89.20;;;;;;5072443;28;19918;-58
2022/07/31 08:53:41;;;;;;;;;;;22.00;89.00;;;;;;5070994;28;19913;-57
2022/07/31 08:56:06;;;;;;;;;;;22.00;89.00;;;;;;5073041;28;20448;-55
2022/07/31 08:58:32;;;;;;;;;;;22.10;89.00;;;;;;5071587;28;20164;-57
2022/07/31 09:00:58;;;;;;;;;;;22.10;88.40;;;;;;5074052;28;19924;-59
2022/07/31 09:03:23;;;;;;;;;;;22.10;88.30;;;;;;5074067;28;19912;-59
2022/07/31 09:05:49;;;;;;;;;;;22.10;88.60;;;;;;5071705;28;20017;-59
2022/07/31 09:08:14;;;;;;;;;;;22.00;88.50;;;;;;5070985;28;19962;-59
2022/07/31 09:10:40;;;;;;;;;;;22.00;88.50;;;;;;5053502;28;20277;-59
2022/07/31 09:13:16;;;;;;;;;;;22.10;88.50;;;;;;5071448;28;19952;-59
2022/07/31 09:15:42;;;;;;;;;;;22.10;88.80;;;;;;5071007;28;20583;-59
2022/07/31 09:18:20;;;;;;;;;;;22.10;89.20;;;;;;5071195;28;19912;-57
2022/07/31 09:20:52;;;;;;;;;;;22.20;88.80;;;;;;5070512;28;19930;-58
2022/07/31 09:23:18;;;;;;;;;;;22.10;88.70;;;;;;5073234;28;19919;-58
2022/07/31 09:25:50;;;;;;;;;;;22.10;88.70;;;;;;5071709;28;20015;-59
2022/07/31 09:28:15;;;;;;;;;;;22.00;88.30;;;;;;5070585;28;20296;-58
2022/07/31 09:30:41;;;;;;;;;;;22.00;88.40;;;;;;5070620;28;19913;-58
2022/07/31 09:33:18;;;;;;;;;;;21.90;88.40;;;;;;5072387;28;19916;-61
2022/07/31 09:35:47;;;;;;;;;;;21.80;88.80;;;;;;5073644;28;19916;-62
2022/07/31 09:38:13;;;;;;;;;;;21.80;89.00;;;;;;5051192;28;20419;-63
2022/07/31 09:40:42;;;;;;;;;;;21.90;89.30;;;;;;5074709;28;19915;-62
2022/07/31 09:43:16;;;;;;;;;;;21.90;89.30;;;;;;5070325;28;20199;-63
2022/07/31 09:45:48;;;;;;;;;;;21.90;88.80;;;;;;5072375;28;20008;-64
2022/07/31 09:48:13;;;;;;;;;;;21.90;88.90;;;;;;5070587;28;20002;-63
2022/07/31 09:50:55;;;;;;;;;;;21.90;88.70;;;;;;5070008;28;19974;-62
2022/07/31 09:53:20;;;;;;;;;;;21.90;88.40;;;;;;5070078;28;20280;-61
2022/07/31 09:55:49;;;;;;;;;;;21.80;88.30;;;;;;5071464;28;19919;-62
2022/07/31 09:58:15;;;;;;;;;;;21.80;89.00;;;;;;5070206;28;19916;-63
2022/07/31 10:00:41;;;;;;;;;;;21.90;88.90;;;;;;5070332;28;19928;-63
2022/07/31 10:03:06;;;;;;;;;;;21.90;88.70;;;;;;5070927;28;19959;-64
2022/07/31 10:05:33;;;;;;;;;;;22.00;88.70;;;;;;5072586;28;19919;-64
2022/07/31 10:07:59;;;;;;;;;;;22.00;88.50;;;;;;5071491;28;19924;-64
2022/07/31 10:10:24;;;;;;;;;;;22.00;88.20;;;;;;5072685;28;19924;-61
2022/07/31 10:12:52;;;;;;;;;;;22.00;88.90;;;;;;5070557;28;19921;-64
2022/07/31 10:15:19;;;;;;;;;;;22.00;88.60;;;;;;5070413;28;19916;-64
2022/07/31 10:17:46;;;;;;;;;;;22.10;88.40;;;;;;5072812;28;19955;-62
2022/07/31 10:20:18;;;;;;;;;;;22.10;86.90;;;;;;5069605;28;19916;-62
2022/07/31 10:22:47;;;;;;;;;;;22.10;87.70;;;;;;5072831;28;20258;-64
2022/07/31 10:25:21;;;;;;;;;;;22.10;87.60;;;;;;5068629;28;19916;-64
2022/07/31 10:27:47;;;;;;;;;;;22.20;87.50;;;;;;5069279;28;20323;-64
2022/07/31 10:30:13;;;;;;;;;;;22.20;87.30;;;;;;5070142;28;19970;-63
2022/07/31 10:32:38;;;;;;;;;;;22.30;87.60;;;;;;5069652;28;19916;-63
2022/07/31 10:35:05;;;;;;;;;;;22.30;87.50;;;;;;5070279;28;19916;-63
2022/07/31 10:37:47;;;;;;;;;;;22.40;87.80;;;;;;5070264;28;19927;-62
2022/07/31 10:40:12;;;;;;;;;;;22.40;87.10;;;;;;5068165;28;20403;-63
2022/07/31 10:42:50;;;;;;;;;;;22.50;86.90;;;;;;5071453;28;19960;-64
2022/07/31 10:45:16;;;;;;;;;;;22.50;87.00;;;;;;5068523;28;19982;-60
2022/07/31 10:47:54;;;;;;;;;;;22.50;86.80;;;;;;5071893;28;19912;-63
2022/07/31 10:50:21;;;;;;;;;;;22.60;86.70;;;;;;5073680;28;19920;-64
2022/07/31 10:52:47;;;;;;;;;;;22.60;86.90;;;;;;5069827;28;20407;-66
2022/07/31 10:55:24;;;;;;;;;;;22.70;86.60;;;;;;5070707;28;19912;-65
2022/07/31 10:57:50;;;;;;;;;;;22.70;85.90;;;;;;5071186;28;19982;-65
2022/07/31 11:00:19;;;;;;;;;;;22.80;86.40;;;;;;5069830;28;19912;-64
2022/07/31 11:02:46;;;;;;;;;;;22.80;86.40;;;;;;5069508;28;19916;-64
2022/07/31 11:05:15;;;;;;;;;;;22.80;86.00;;;;;;5072347;28;19971;-65
2022/07/31 11:07:41;;;;;;;;;;;22.90;86.10;;;;;;5069601;28;20404;-64
2022/07/31 11:10:08;;;;;;;;;;;22.90;86.30;;;;;;5070422;28;19919;-65
2022/07/31 11:12:33;;;;;;;;;;;22.90;85.90;;;;;;5070450;28;19927;-65
2022/07/31 11:14:59;;;;;;;;;;;22.90;85.70;;;;;;5069917;28;19912;-66
2022/07/31 11:17:31;;;;;;;;;;;23.00;85.50;;;;;;5072208;28;19966;-65
2022/07/31 11:19:57;;;;;;;;;;;23.00;85.00;;;;;;5069408;28;19912;-65
2022/07/31 11:22:22;;;;;;;;;;;23.00;85.40;;;;;;5070236;28;19931;-65
2022/07/31 11:24:54;;;;;;;;;;;23.10;84.90;;;;;;5069707;28;19913;-64
2022/07/31 11:27:29;;;;;;;;;;;23.10;85.20;;;;;;5075599;28;19922;-66
2022/07/31 11:30:01;;;;;;;;;;;23.20;85.30;;;;;;5073195;28;19919;-63
2022/07/31 11:32:27;;;;;;;;;;;23.30;85.70;;;;;;5073698;28;19972;-67
2022/07/31 11:34:53;;;;;;;;;;;23.30;84.50;;;;;;5072673;28;20007;-65
2022/07/31 11:37:22;;;;;;;;;;;23.30;84.70;;;;;;5054983;28;20336;-66
2022/07/31 11:39:48;;;;;;;;;;;23.40;84.80;;;;;;5075896;28;20443;-65
2022/07/31 11:42:13;;;;;;;;;;;23.50;84.20;;;;;;5072895;28;19964;-66
2022/07/31 11:44:39;;;;;;;;;;;23.50;84.40;;;;;;5072921;28;19959;-65
2022/07/31 11:47:05;;;;;;;;;;;23.60;84.00;;;;;;5071598;28;19912;-65
2022/07/31 11:49:35;;;;;;;;;;;23.60;84.10;;;;;;5056674;28;19948;-62
2022/07/31 11:52:01;;;;;;;;;;;23.60;83.90;;;;;;5072286;28;20274;-60
2022/07/31 11:54:27;;;;;;;;;;;23.60;83.40;;;;;;5070809;28;19909;-69
2022/07/31 11:56:53;;;;;;;;;;;23.70;83.60;;;;;;5073523;28;19926;-68
2022/07/31 11:59:36;;;;;;;;;;;23.70;84.10;;;;;;5072863;28;19912;-67
2022/07/31 12:02:05;;;;;;;;;;;23.80;83.80;;;;;;5071959;28;19928;-67
2022/07/31 12:04:32;;;;;;;;;;;23.80;83.40;;;;;;5073457;28;19908;-69
2022/07/31 12:06:57;;;;;;;;;;;23.90;83.20;;;;;;5071610;28;19946;-67
2022/07/31 12:09:23;;;;;;;;;;;24.00;83.70;;;;;;5073002;28;20451;-61
2022/07/31 12:11:49;;;;;;;;;;;24.10;82.90;;;;;;5087827;28;20380;-61
2022/07/31 12:14:14;;;;;;;;;;;24.10;83.10;;;;;;5072679;28;20404;-61
2022/07/31 12:16:40;;;;;;;;;;;24.10;82.80;;;;;;5071925;28;19908;-60
2022/07/31 12:19:06;;;;;;;;;;;24.20;82.50;;;;;;5073402;28;20388;-61
2022/07/31 12:21:32;;;;;;;;;;;24.20;82.40;;;;;;5075904;28;20341;-60
2022/07/31 12:23:58;;;;;;;;;;;24.30;82.60;;;;;;5072272;28;19916;-60
2022/07/31 12:26:26;;;;;;;;;;;24.30;82.40;;;;;;5074378;28;19912;-60
2022/07/31 12:28:55;;;;;;;;;;;24.40;82.40;;;;;;5068532;28;19921;-59
2022/07/31 12:31:21;;;;;;;;;;;24.40;81.90;;;;;;5071721;28;19915;-67
2022/07/31 12:33:47;;;;;;;;;;;24.50;82.10;;;;;;5071950;28;19916;-67
2022/07/31 12:36:14;;;;;;;;;;;24.50;81.80;;;;;;5072077;28;19916;-66
2022/07/31 12:38:40;;;;;;;;;;;24.60;81.40;;;;;;5070827;28;19997;-67
2022/07/31 12:41:05;;;;;;;;;;;24.60;81.50;;;;;;5072568;28;19962;-67
2022/07/31 12:43:31;;;;;;;;;;;24.60;81.70;;;;;;5072101;28;19912;-67
2022/07/31 12:45:59;;;;;;;;;;;24.70;81.60;;;;;;5075340;28;19912;-67
2022/07/31 12:48:27;;;;;;;;;;;24.70;81.70;;;;;;5073387;28;19912;-67
2022/07/31 12:50:53;;;;;;;;;;;24.70;81.00;;;;;;5071506;28;19962;-66
2022/07/31 12:53:19;;;;;;;;;;;24.60;81.20;;;;;;5071672;28;20003;-69
2022/07/31 12:55:44;;;;;;;;;;;24.70;81.60;;;;;;5071780;28;19967;-69
2022/07/31 12:58:09;;;;;;;;;;;24.80;81.30;;;;;;5071147;28;19916;-68
2022/07/31 13:00:35;;;;;;;;;;;24.80;81.30;;;;;;5071787;28;19916;-69
2022/07/31 13:03:01;;;;;;;;;;;24.90;81.00;;;;;;5070048;28;20385;-68
2022/07/31 13:05:26;;;;;;;;;;;24.90;81.00;;;;;;5071734;28;19913;-68
2022/07/31 13:07:52;;;;;;;;;;;25.00;80.80;;;;;;5071173;28;20398;-68
2022/07/31 13:10:19;;;;;;;;;;;25.00;80.80;;;;;;5073401;28;19946;-68
2022/07/31 13:12:45;;;;;;;;;;;25.00;80.80;;;;;;5067648;28;19997;-67
2022/07/31 13:15:11;;;;;;;;;;;25.00;80.80;;;;;;5056275;28;20331;-66
2022/07/31 13:17:36;;;;;;;;;;;25.00;81.10;;;;;;5074410;28;19966;-68
2022/07/31 13:20:02;;;;;;;;;;;25.00;80.80;;;;;;5071928;28;19916;-68
2022/07/31 13:22:28;;;;;;;;;;;25.10;81.10;;;;;;5074184;28;20007;-57
2022/07/31 13:24:53;;;;;;;;;;;25.20;81.30;;;;;;5071380;28;19916;-58
2022/07/31 13:27:19;;;;;;;;;;;25.30;81.00;;;;;;5074868;28;19959;-58
2022/07/31 13:29:44;;;;;;;;;;;25.40;80.90;;;;;;5072170;28;19998;-57
2022/07/31 13:32:10;;;;;;;;;;;25.50;80.30;;;;;;5070989;28;19912;-57
2022/07/31 13:34:36;;;;;;;;;;;25.50;80.10;;;;;;5070440;28;19945;-57
2022/07/31 13:37:01;;;;;;;;;;;25.60;80.00;;;;;;5073963;28;19999;-58
2022/07/31 13:39:27;;;;;;;;;;;25.50;79.20;;;;;;5071089;28;19960;-58
2022/07/31 13:41:52;;;;;;;;;;;25.50;79.30;;;;;;5069998;28;19928;-57
2022/07/31 13:44:18;;;;;;;;;;;25.50;79.20;;;;;;5071615;28;19951;-57
2022/07/31 13:46:43;;;;;;;;;;;25.50;79.70;;;;;;5072576;28;19913;-56
2022/07/31 13:49:09;;;;;;;;;;;25.40;79.40;;;;;;5071795;28;19913;-57
2022/07/31 13:51:35;;;;;;;;;;;25.50;79.40;;;;;;5074575;28;19971;-57
2022/07/31 13:54:01;;;;;;;;;;;25.50;79.40;;;;;;5070519;28;19912;-55
2022/07/31 13:56:26;;;;;;;;;;;25.50;79.00;;;;;;5070459;28;19913;-57
2022/07/31 13:58:53;;;;;;;;;;;25.50;79.00;;;;;;5070724;28;19943;-57
2022/07/31 14:01:19;;;;;;;;;;;25.50;78.70;;;;;;5070954;28;20335;-56
2022/07/31 14:03:44;;;;;;;;;;;25.60;78.60;;;;;;5070668;28;19912;-56
2022/07/31 14:06:10;;;;;;;;;;;25.60;78.50;;;;;;5070248;28;19913;-57
2022/07/31 14:08:35;;;;;;;;;;;25.70;78.60;;;;;;5070977;28;19916;-58
2022/07/31 14:11:01;;;;;;;;;;;25.70;78.40;;;;;;5088300;28;20346;-57
2022/07/31 14:13:27;;;;;;;;;;;25.70;78.80;;;;;;5070102;28;20003;-55
2022/07/31 14:15:53;;;;;;;;;;;25.80;79.10;;;;;;5070344;28;19927;-57